sensor_id;sensor_type;location;lat;lon;timestamp;temperature;humidity
47521;DHT22;32291;52.010;4.446;2023-07-30T00:00:14;17.30;99.90
47521;DHT22;32291;52.010;4.446;2023-07-30T00:01:16;17.30;99.90
47521;DHT22;32291;52.010;4.446;2023-07-30T00:02:20;17.30;99.90
47521;DHT22;32291;52.010;4.446;2023-07-30T00:03:22;17.30;99.90
47521;DHT22;32291;52.010;4.446;2023-07-30T00:04:24;17.30;99.90
47521;DHT22;32291;52.010;4.446;2023-07-30T00:05:31;17.30;99.90
47521;DHT22;32291;52.010;4.446;2023-07-30T00:06:33;17.30;99.90
47521;DHT22;32291;52.010;4.446;2023-07-30T00:07:36;17.40;99.90
47521;DHT22;32291;52.010;4.446;2023-07-30T00:08:38;17.40;99.90
47521;DHT22;32291;52.010;4.446;2023-07-30T00:09:45;17.40;99.90
47521;DHT22;32291;52.010;4.446;2023-07-30T00:10:51;17.40;99.90
47521;DHT22;32291;52.010;4.446;2023-07-30T00:11:54;17.40;99.90
47521;DHT22;32291;52.010;4.446;2023-07-30T00:12:56;17.40;99.90
47521;DHT22;32291;52.010;4.446;2023-07-30T00:14:03;17.40;99.90
47521;DHT22;32291;52.010;4.446;2023-07-30T00:15:10;17.50;99.90
47521;DHT22;32291;52.010;4.446;2023-07-30T00:16:20;17.40;99.90
47521;DHT22;32291;52.010;4.446;2023-07-30T00:17:27;17.40;99.90
47521;DHT22;32291;52.010;4.446;2023-07-30T00:18:34;17.50;99.90
47521;DHT22;32291;52.010;4.446;2023-07-30T00:19:36;17.40;99.90
47521;DHT22;32291;52.010;4.446;2023-07-30T00:20:43;17.40;99.90
47521;DHT22;32291;52.010;4.446;2023-07-30T00:21:50;17.50;99.90
47521;DHT22;32291;52.010;4.446;2023-07-30T00:22:52;17.40;99.90
47521;DHT22;32291;52.010;4.446;2023-07-30T00:23:54;17.50;99.90
47521;DHT22;32291;52.010;4.446;2023-07-30T00:24:56;17.40;99.90
47521;DHT22;32291;52.010;4.446;2023-07-30T00:26:03;17.50;99.90
47521;DHT22;32291;52.010;4.446;2023-07-30T00:27:10;17.50;99.90
47521;DHT22;32291;52.010;4.446;2023-07-30T00:28:17;17.40;99.90
47521;DHT22;32291;52.010;4.446;2023-07-30T00:29:19;17.40;99.90
47521;DHT22;32291;52.010;4.446;2023-07-30T00:30:26;17.40;99.90
47521;DHT22;32291;52.010;4.446;2023-07-30T00:31:33;17.40;99.90
47521;DHT22;32291;52.010;4.446;2023-07-30T00:32:35;17.40;99.90
47521;DHT22;32291;52.010;4.446;2023-07-30T00:33:37;17.40;99.90
47521;DHT22;32291;52.010;4.446;2023-07-30T00:34:39;17.30;99.90
47521;DHT22;32291;52.010;4.446;2023-07-30T00:35:41;17.40;99.90
47521;DHT22;32291;52.010;4.446;2023-07-30T00:36:44;17.40;99.90
47521;DHT22;32291;52.010;4.446;2023-07-30T00:37:50;17.30;99.90
47521;DHT22;32291;52.010;4.446;2023-07-30T00:38:53;17.30;99.90
47521;DHT22;32291;52.010;4.446;2023-07-30T00:39:59;17.40;99.90
47521;DHT22;32291;52.010;4.446;2023-07-30T00:41:06;17.40;99.90
47521;DHT22;32291;52.010;4.446;2023-07-30T00:42:08;17.30;99.90
47521;DHT22;32291;52.010;4.446;2023-07-30T00:43:10;17.40;99.90
47521;DHT22;32291;52.010;4.446;2023-07-30T00:44:13;17.50;99.90
47521;DHT22;32291;52.010;4.446;2023-07-30T00:45:16;17.50;99.90
47521;DHT22;32291;52.010;4.446;2023-07-30T00:46:18;17.50;99.90
47521;DHT22;32291;52.010;4.446;2023-07-30T00:47:25;17.50;99.90
47521;DHT22;32291;52.010;4.446;2023-07-30T00:48:33;17.50;99.90
47521;DHT22;32291;52.010;4.446;2023-07-30T00:49:40;17.50;99.90
47521;DHT22;32291;52.010;4.446;2023-07-30T00:50:47;17.50;99.90
47521;DHT22;32291;52.010;4.446;2023-07-30T00:51:49;17.40;99.90
47521;DHT22;32291;52.010;4.446;2023-07-30T00:52:55;17.50;99.90
47521;DHT22;32291;52.010;4.446;2023-07-30T00:54:02;17.60;99.90
47521;DHT22;32291;52.010;4.446;2023-07-30T00:55:04;17.50;99.90
47521;DHT22;32291;52.010;4.446;2023-07-30T00:56:09;17.50;99.90
47521;DHT22;32291;52.010;4.446;2023-07-30T00:57:12;17.60;99.90
47521;DHT22;32291;52.010;4.446;2023-07-30T00:58:15;17.60;99.90
47521;DHT22;32291;52.010;4.446;2023-07-30T00:59:20;17.60;99.90
47521;DHT22;32291;52.010;4.446;2023-07-30T01:00:23;17.60;99.90
47521;DHT22;32291;52.010;4.446;2023-07-30T01:01:26;17.70;99.90
47521;DHT22;32291;52.010;4.446;2023-07-30T01:02:29;17.70;99.90
47521;DHT22;32291;52.010;4.446;2023-07-30T01:03:39;17.60;99.90
47521;DHT22;32291;52.010;4.446;2023-07-30T01:04:46;17.60;99.90
47521;DHT22;32291;52.010;4.446;2023-07-30T01:05:54;17.60;99.90
47521;DHT22;32291;52.010;4.446;2023-07-30T01:06:58;17.70;99.90
47521;DHT22;32291;52.010;4.446;2023-07-30T01:08:00;17.60;99.90
47521;DHT22;32291;52.010;4.446;2023-07-30T01:09:07;17.70;99.90
47521;DHT22;32291;52.010;4.446;2023-07-30T01:10:09;17.60;99.90
47521;DHT22;32291;52.010;4.446;2023-07-30T01:11:17;17.70;99.90
47521;DHT22;32291;52.010;4.446;2023-07-30T01:12:21;17.60;99.90
47521;DHT22;32291;52.010;4.446;2023-07-30T01:13:24;17.70;99.90
47521;DHT22;32291;52.010;4.446;2023-07-30T01:14:28;17.70;99.90
47521;DHT22;32291;52.010;4.446;2023-07-30T01:15:31;17.70;99.90
47521;DHT22;32291;52.010;4.446;2023-07-30T01:16:34;17.70;99.90
47521;DHT22;32291;52.010;4.446;2023-07-30T01:17:36;17.70;99.90
47521;DHT22;32291;52.010;4.446;2023-07-30T01:18:39;17.70;99.90
47521;DHT22;32291;52.010;4.446;2023-07-30T01:19:41;17.60;99.90
47521;DHT22;32291;52.010;4.446;2023-07-30T01:20:44;17.70;99.90
47521;DHT22;32291;52.010;4.446;2023-07-30T01:21:46;17.70;99.90
47521;DHT22;32291;52.010;4.446;2023-07-30T01:22:48;17.70;99.90
47521;DHT22;32291;52.010;4.446;2023-07-30T01:23:51;17.70;99.90
47521;DHT22;32291;52.010;4.446;2023-07-30T01:24:53;17.70;99.90
47521;DHT22;32291;52.010;4.446;2023-07-30T01:26:10;17.70;99.90
47521;DHT22;32291;52.010;4.446;2023-07-30T01:27:28;17.70;99.90
47521;DHT22;32291;52.010;4.446;2023-07-30T01:28:41;17.60;99.90
47521;DHT22;32291;52.010;4.446;2023-07-30T01:29:55;17.70;99.90
47521;DHT22;32291;52.010;4.446;2023-07-30T01:31:05;17.60;99.90
47521;DHT22;32291;52.010;4.446;2023-07-30T01:32:11;17.60;99.90
47521;DHT22;32291;52.010;4.446;2023-07-30T01:33:15;17.70;99.90
47521;DHT22;32291;52.010;4.446;2023-07-30T01:34:24;17.70;99.90
47521;DHT22;32291;52.010;4.446;2023-07-30T01:35:35;17.80;99.90
47521;DHT22;32291;52.010;4.446;2023-07-30T01:36:44;17.70;99.90
47521;DHT22;32291;52.010;4.446;2023-07-30T01:37:50;17.70;99.90
47521;DHT22;32291;52.010;4.446;2023-07-30T01:38:59;17.70;99.90
47521;DHT22;32291;52.010;4.446;2023-07-30T01:40:02;17.70;99.90
47521;DHT22;32291;52.010;4.446;2023-07-30T01:41:09;17.70;99.90
47521;DHT22;32291;52.010;4.446;2023-07-30T01:42:17;17.70;99.90
47521;DHT22;32291;52.010;4.446;2023-07-30T01:43:19;17.60;99.90
47521;DHT22;32291;52.010;4.446;2023-07-30T01:44:22;17.60;99.90
47521;DHT22;32291;52.010;4.446;2023-07-30T01:45:29;17.70;99.90
47521;DHT22;32291;52.010;4.446;2023-07-30T01:46:31;17.60;99.90
47521;DHT22;32291;52.010;4.446;2023-07-30T01:47:33;17.60;99.90
47521;DHT22;32291;52.010;4.446;2023-07-30T01:48:35;17.60;99.90
47521;DHT22;32291;52.010;4.446;2023-07-30T01:49:42;17.60;99.90
47521;DHT22;32291;52.010;4.446;2023-07-30T01:50:44;17.70;99.90
47521;DHT22;32291;52.010;4.446;2023-07-30T01:51:49;17.70;99.90
47521;DHT22;32291;52.010;4.446;2023-07-30T01:52:51;17.70;99.90
47521;DHT22;32291;52.010;4.446;2023-07-30T01:53:58;17.70;99.90
47521;DHT22;32291;52.010;4.446;2023-07-30T01:55:00;17.60;99.90
47521;DHT22;32291;52.010;4.446;2023-07-30T01:56:07;17.60;99.90
47521;DHT22;32291;52.010;4.446;2023-07-30T01:57:10;17.60;99.90
47521;DHT22;32291;52.010;4.446;2023-07-30T01:58:17;17.60;99.90
47521;DHT22;32291;52.010;4.446;2023-07-30T01:59:19;17.60;99.90
47521;DHT22;32291;52.010;4.446;2023-07-30T02:00:21;17.60;99.90
47521;DHT22;32291;52.010;4.446;2023-07-30T02:01:24;17.60;99.90
47521;DHT22;32291;52.010;4.446;2023-07-30T02:02:31;17.60;99.90
47521;DHT22;32291;52.010;4.446;2023-07-30T02:03:33;17.60;99.90
47521;DHT22;32291;52.010;4.446;2023-07-30T02:04:40;17.60;99.90
47521;DHT22;32291;52.010;4.446;2023-07-30T02:05:47;17.60;99.90
47521;DHT22;32291;52.010;4.446;2023-07-30T02:06:49;17.60;99.90
47521;DHT22;32291;52.010;4.446;2023-07-30T02:07:51;17.60;99.90
47521;DHT22;32291;52.010;4.446;2023-07-30T02:08:58;17.60;99.90
47521;DHT22;32291;52.010;4.446;2023-07-30T02:10:00;17.60;99.90
47521;DHT22;32291;52.010;4.446;2023-07-30T02:11:07;17.70;99.90
47521;DHT22;32291;52.010;4.446;2023-07-30T02:12:10;17.60;99.90
47521;DHT22;32291;52.010;4.446;2023-07-30T02:13:14;17.60;99.90
47521;DHT22;32291;52.010;4.446;2023-07-30T02:14:17;17.60;99.90
47521;DHT22;32291;52.010;4.446;2023-07-30T02:15:19;17.60;99.90
47521;DHT22;32291;52.010;4.446;2023-07-30T02:16:27;17.60;99.90
47521;DHT22;32291;52.010;4.446;2023-07-30T02:17:34;17.60;99.90
47521;DHT22;32291;52.010;4.446;2023-07-30T02:18:40;17.70;99.90
47521;DHT22;32291;52.010;4.446;2023-07-30T02:19:47;17.60;99.90
47521;DHT22;32291;52.010;4.446;2023-07-30T02:20:54;17.60;99.90
47521;DHT22;32291;52.010;4.446;2023-07-30T02:22:01;17.60;99.90
47521;DHT22;32291;52.010;4.446;2023-07-30T02:23:03;17.60;99.90
47521;DHT22;32291;52.010;4.446;2023-07-30T02:24:10;17.60;99.90
47521;DHT22;32291;52.010;4.446;2023-07-30T02:25:13;17.60;99.90
47521;DHT22;32291;52.010;4.446;2023-07-30T02:26:16;17.60;99.90
47521;DHT22;32291;52.010;4.446;2023-07-30T02:27:23;17.60;99.90
47521;DHT22;32291;52.010;4.446;2023-07-30T02:28:25;17.60;99.90
47521;DHT22;32291;52.010;4.446;2023-07-30T02:29:27;17.60;99.90
47521;DHT22;32291;52.010;4.446;2023-07-30T02:30:34;17.60;99.90
47521;DHT22;32291;52.010;4.446;2023-07-30T02:31:36;17.60;99.90
47521;DHT22;32291;52.010;4.446;2023-07-30T02:32:44;17.60;99.90
47521;DHT22;32291;52.010;4.446;2023-07-30T02:33:50;17.60;99.90
47521;DHT22;32291;52.010;4.446;2023-07-30T02:34:57;17.60;99.90
47521;DHT22;32291;52.010;4.446;2023-07-30T02:36:04;17.60;99.90
47521;DHT22;32291;52.010;4.446;2023-07-30T02:37:06;17.60;99.90
47521;DHT22;32291;52.010;4.446;2023-07-30T02:38:13;17.60;99.90
47521;DHT22;32291;52.010;4.446;2023-07-30T02:39:20;17.60;99.90
47521;DHT22;32291;52.010;4.446;2023-07-30T02:40:22;17.60;99.90
47521;DHT22;32291;52.010;4.446;2023-07-30T02:41:24;17.60;99.90
47521;DHT22;32291;52.010;4.446;2023-07-30T02:42:26;17.60;99.90
47521;DHT22;32291;52.010;4.446;2023-07-30T02:43:28;17.60;99.90
47521;DHT22;32291;52.010;4.446;2023-07-30T02:44:36;17.60;99.90
47521;DHT22;32291;52.010;4.446;2023-07-30T02:45:38;17.60;99.90
47521;DHT22;32291;52.010;4.446;2023-07-30T02:46:45;17.70;99.90
47521;DHT22;32291;52.010;4.446;2023-07-30T02:47:47;17.60;99.90
47521;DHT22;32291;52.010;4.446;2023-07-30T02:48:49;17.70;99.90
47521;DHT22;32291;52.010;4.446;2023-07-30T02:49:56;17.70;99.90
47521;DHT22;32291;52.010;4.446;2023-07-30T02:51:03;17.70;99.90
47521;DHT22;32291;52.010;4.446;2023-07-30T02:52:10;17.70;99.90
47521;DHT22;32291;52.010;4.446;2023-07-30T02:53:17;17.70;99.90
47521;DHT22;32291;52.010;4.446;2023-07-30T02:54:19;17.70;99.90
47521;DHT22;32291;52.010;4.446;2023-07-30T02:55:23;17.70;99.90
47521;DHT22;32291;52.010;4.446;2023-07-30T02:56:26;17.60;99.90
47521;DHT22;32291;52.010;4.446;2023-07-30T02:57:32;17.60;99.90
47521;DHT22;32291;52.010;4.446;2023-07-30T02:58:34;17.70;99.90
47521;DHT22;32291;52.010;4.446;2023-07-30T02:59:41;17.60;99.90
47521;DHT22;32291;52.010;4.446;2023-07-30T03:00:48;17.70;99.90
47521;DHT22;32291;52.010;4.446;2023-07-30T03:01:55;17.60;99.90
47521;DHT22;32291;52.010;4.446;2023-07-30T03:03:04;17.70;99.90
47521;DHT22;32291;52.010;4.446;2023-07-30T03:04:10;17.70;99.90
47521;DHT22;32291;52.010;4.446;2023-07-30T03:05:17;17.70;99.90
47521;DHT22;32291;52.010;4.446;2023-07-30T03:06:19;17.70;99.90
47521;DHT22;32291;52.010;4.446;2023-07-30T03:07:26;17.70;99.90
47521;DHT22;32291;52.010;4.446;2023-07-30T03:08:29;17.70;99.90
47521;DHT22;32291;52.010;4.446;2023-07-30T03:09:31;17.80;99.90
47521;DHT22;32291;52.010;4.446;2023-07-30T03:10:36;17.70;99.90
47521;DHT22;32291;52.010;4.446;2023-07-30T03:11:43;17.70;99.90
47521;DHT22;32291;52.010;4.446;2023-07-30T03:12:50;17.80;99.90
47521;DHT22;32291;52.010;4.446;2023-07-30T03:13:52;17.80;99.90
47521;DHT22;32291;52.010;4.446;2023-07-30T03:14:54;17.80;99.90
47521;DHT22;32291;52.010;4.446;2023-07-30T03:15:57;17.80;99.90
47521;DHT22;32291;52.010;4.446;2023-07-30T03:16:59;17.80;99.90
47521;DHT22;32291;52.010;4.446;2023-07-30T03:18:06;17.80;99.90
47521;DHT22;32291;52.010;4.446;2023-07-30T03:19:13;17.80;99.90
47521;DHT22;32291;52.010;4.446;2023-07-30T03:20:20;17.80;99.90
47521;DHT22;32291;52.010;4.446;2023-07-30T03:21:22;17.80;99.90
47521;DHT22;32291;52.010;4.446;2023-07-30T03:22:29;17.80;99.90
47521;DHT22;32291;52.010;4.446;2023-07-30T03:23:36;17.80;99.90
47521;DHT22;32291;52.010;4.446;2023-07-30T03:24:39;17.80;99.90
47521;DHT22;32291;52.010;4.446;2023-07-30T03:25:46;17.80;99.90
47521;DHT22;32291;52.010;4.446;2023-07-30T03:26:48;17.80;99.90
47521;DHT22;32291;52.010;4.446;2023-07-30T03:27:55;17.80;99.90
47521;DHT22;32291;52.010;4.446;2023-07-30T03:28:57;17.90;99.90
47521;DHT22;32291;52.010;4.446;2023-07-30T03:29:59;17.90;99.90
47521;DHT22;32291;52.010;4.446;2023-07-30T03:31:02;17.90;99.90
47521;DHT22;32291;52.010;4.446;2023-07-30T03:32:04;17.90;99.90
47521;DHT22;32291;52.010;4.446;2023-07-30T03:33:06;17.90;99.90
47521;DHT22;32291;52.010;4.446;2023-07-30T03:34:09;17.90;99.90
47521;DHT22;32291;52.010;4.446;2023-07-30T03:35:14;17.90;99.90
47521;DHT22;32291;52.010;4.446;2023-07-30T03:36:24;17.80;99.90
47521;DHT22;32291;52.010;4.446;2023-07-30T03:37:31;17.80;99.90
47521;DHT22;32291;52.010;4.446;2023-07-30T03:38:33;17.80;99.90
47521;DHT22;32291;52.010;4.446;2023-07-30T03:39:36;17.80;99.90
47521;DHT22;32291;52.010;4.446;2023-07-30T03:40:43;17.80;99.90
47521;DHT22;32291;52.010;4.446;2023-07-30T03:41:45;17.80;99.90
47521;DHT22;32291;52.010;4.446;2023-07-30T03:42:47;17.80;99.90
47521;DHT22;32291;52.010;4.446;2023-07-30T03:43:55;17.80;99.90
47521;DHT22;32291;52.010;4.446;2023-07-30T03:45:03;17.80;99.90
47521;DHT22;32291;52.010;4.446;2023-07-30T03:46:10;17.80;99.90
47521;DHT22;32291;52.010;4.446;2023-07-30T03:47:17;17.80;99.90
47521;DHT22;32291;52.010;4.446;2023-07-30T03:48:22;17.80;99.90
47521;DHT22;32291;52.010;4.446;2023-07-30T03:49:24;17.80;99.90
47521;DHT22;32291;52.010;4.446;2023-07-30T03:50:26;17.70;99.90
47521;DHT22;32291;52.010;4.446;2023-07-30T03:51:33;17.70;99.90
47521;DHT22;32291;52.010;4.446;2023-07-30T03:52:35;17.70;99.90
47521;DHT22;32291;52.010;4.446;2023-07-30T03:53:38;17.70;99.90
47521;DHT22;32291;52.010;4.446;2023-07-30T03:54:40;17.80;99.90
47521;DHT22;32291;52.010;4.446;2023-07-30T03:55:42;17.70;99.90
47521;DHT22;32291;52.010;4.446;2023-07-30T03:56:49;17.70;99.90
47521;DHT22;32291;52.010;4.446;2023-07-30T03:57:51;17.70;99.90
47521;DHT22;32291;52.010;4.446;2023-07-30T03:58:53;17.70;99.90
47521;DHT22;32291;52.010;4.446;2023-07-30T04:00:00;17.70;99.90
47521;DHT22;32291;52.010;4.446;2023-07-30T04:01:03;17.70;99.90
47521;DHT22;32291;52.010;4.446;2023-07-30T04:02:05;17.70;99.90
47521;DHT22;32291;52.010;4.446;2023-07-30T04:03:07;17.60;99.90
47521;DHT22;32291;52.010;4.446;2023-07-30T04:04:09;17.60;99.90
47521;DHT22;32291;52.010;4.446;2023-07-30T04:05:11;17.60;99.90
47521;DHT22;32291;52.010;4.446;2023-07-30T04:06:14;17.60;99.90
47521;DHT22;32291;52.010;4.446;2023-07-30T04:07:16;17.60;99.90
47521;DHT22;32291;52.010;4.446;2023-07-30T04:08:18;17.60;99.90
47521;DHT22;32291;52.010;4.446;2023-07-30T04:09:21;17.60;99.90
47521;DHT22;32291;52.010;4.446;2023-07-30T04:10:27;17.60;99.90
47521;DHT22;32291;52.010;4.446;2023-07-30T04:11:30;17.50;99.90
47521;DHT22;32291;52.010;4.446;2023-07-30T04:12:32;17.50;99.90
47521;DHT22;32291;52.010;4.446;2023-07-30T04:13:34;17.60;99.90
47521;DHT22;32291;52.010;4.446;2023-07-30T04:14:41;17.60;99.90
47521;DHT22;32291;52.010;4.446;2023-07-30T04:15:43;17.50;99.90
47521;DHT22;32291;52.010;4.446;2023-07-30T04:16:46;17.50;99.90
47521;DHT22;32291;52.010;4.446;2023-07-30T04:17:49;17.50;99.90
47521;DHT22;32291;52.010;4.446;2023-07-30T04:18:56;17.60;99.90
47521;DHT22;32291;52.010;4.446;2023-07-30T04:20:03;17.60;99.90
47521;DHT22;32291;52.010;4.446;2023-07-30T04:21:06;17.50;99.90
47521;DHT22;32291;52.010;4.446;2023-07-30T04:22:16;17.50;99.90
47521;DHT22;32291;52.010;4.446;2023-07-30T04:23:18;17.60;99.90
47521;DHT22;32291;52.010;4.446;2023-07-30T04:24:24;17.50;99.90
47521;DHT22;32291;52.010;4.446;2023-07-30T04:25:33;17.60;99.90
47521;DHT22;32291;52.010;4.446;2023-07-30T04:26:40;17.60;99.90
47521;DHT22;32291;52.010;4.446;2023-07-30T04:27:42;17.60;99.90
47521;DHT22;32291;52.010;4.446;2023-07-30T04:28:49;17.50;99.90
47521;DHT22;32291;52.010;4.446;2023-07-30T04:29:56;17.60;99.90
47521;DHT22;32291;52.010;4.446;2023-07-30T04:31:03;17.60;99.90
47521;DHT22;32291;52.010;4.446;2023-07-30T04:32:09;17.60;99.90
47521;DHT22;32291;52.010;4.446;2023-07-30T04:33:16;17.60;99.90
47521;DHT22;32291;52.010;4.446;2023-07-30T04:34:19;17.60;99.90
47521;DHT22;32291;52.010;4.446;2023-07-30T04:35:21;17.60;99.90
47521;DHT22;32291;52.010;4.446;2023-07-30T04:36:23;17.60;99.90
47521;DHT22;32291;52.010;4.446;2023-07-30T04:37:30;17.70;99.90
47521;DHT22;32291;52.010;4.446;2023-07-30T04:38:37;17.60;99.90
47521;DHT22;32291;52.010;4.446;2023-07-30T04:39:40;17.60;99.90
47521;DHT22;32291;52.010;4.446;2023-07-30T04:40:42;17.60;99.90
47521;DHT22;32291;52.010;4.446;2023-07-30T04:41:44;17.60;99.90
47521;DHT22;32291;52.010;4.446;2023-07-30T04:42:46;17.60;99.90
47521;DHT22;32291;52.010;4.446;2023-07-30T04:43:53;17.70;99.90
47521;DHT22;32291;52.010;4.446;2023-07-30T04:45:00;17.60;99.90
47521;DHT22;32291;52.010;4.446;2023-07-30T04:46:07;17.60;99.90
47521;DHT22;32291;52.010;4.446;2023-07-30T04:47:09;17.60;99.90
47521;DHT22;32291;52.010;4.446;2023-07-30T04:48:16;17.60;99.90
47521;DHT22;32291;52.010;4.446;2023-07-30T04:49:23;17.60;99.90
47521;DHT22;32291;52.010;4.446;2023-07-30T04:50:29;17.60;99.90
47521;DHT22;32291;52.010;4.446;2023-07-30T04:51:31;17.50;99.90
47521;DHT22;32291;52.010;4.446;2023-07-30T04:52:38;17.50;99.90
47521;DHT22;32291;52.010;4.446;2023-07-30T04:53:40;17.50;99.90
47521;DHT22;32291;52.010;4.446;2023-07-30T04:54:43;17.50;99.90
47521;DHT22;32291;52.010;4.446;2023-07-30T04:55:55;17.50;99.90
47521;DHT22;32291;52.010;4.446;2023-07-30T04:56:59;17.50;99.90
47521;DHT22;32291;52.010;4.446;2023-07-30T04:58:01;17.50;99.90
47521;DHT22;32291;52.010;4.446;2023-07-30T04:59:03;17.50;99.90
47521;DHT22;32291;52.010;4.446;2023-07-30T05:00:06;17.50;99.90
47521;DHT22;32291;52.010;4.446;2023-07-30T05:01:14;17.40;99.90
47521;DHT22;32291;52.010;4.446;2023-07-30T05:02:21;17.40;99.90
47521;DHT22;32291;52.010;4.446;2023-07-30T05:03:28;17.40;99.90
47521;DHT22;32291;52.010;4.446;2023-07-30T05:04:35;17.40;99.90
47521;DHT22;32291;52.010;4.446;2023-07-30T05:05:37;17.40;99.90
47521;DHT22;32291;52.010;4.446;2023-07-30T05:06:39;17.40;99.90
47521;DHT22;32291;52.010;4.446;2023-07-30T05:07:41;17.40;99.90
47521;DHT22;32291;52.010;4.446;2023-07-30T05:08:43;17.40;99.90
47521;DHT22;32291;52.010;4.446;2023-07-30T05:09:50;17.30;99.90
47521;DHT22;32291;52.010;4.446;2023-07-30T05:10:57;17.30;99.90
47521;DHT22;32291;52.010;4.446;2023-07-30T05:12:04;17.30;99.90
47521;DHT22;32291;52.010;4.446;2023-07-30T05:13:07;17.30;99.90
47521;DHT22;32291;52.010;4.446;2023-07-30T05:14:15;17.40;99.90
47521;DHT22;32291;52.010;4.446;2023-07-30T05:15:22;17.30;99.90
47521;DHT22;32291;52.010;4.446;2023-07-30T05:16:24;17.30;99.90
47521;DHT22;32291;52.010;4.446;2023-07-30T05:17:31;17.30;99.90
47521;DHT22;32291;52.010;4.446;2023-07-30T05:18:37;17.30;99.90
47521;DHT22;32291;52.010;4.446;2023-07-30T05:19:40;17.30;99.90
47521;DHT22;32291;52.010;4.446;2023-07-30T05:20:42;17.40;99.90
47521;DHT22;32291;52.010;4.446;2023-07-30T05:21:52;17.40;99.90
47521;DHT22;32291;52.010;4.446;2023-07-30T05:22:59;17.40;99.90
47521;DHT22;32291;52.010;4.446;2023-07-30T05:24:07;17.50;99.90
47521;DHT22;32291;52.010;4.446;2023-07-30T05:25:14;17.40;99.90
47521;DHT22;32291;52.010;4.446;2023-07-30T05:26:16;17.50;99.90
47521;DHT22;32291;52.010;4.446;2023-07-30T05:27:18;17.50;99.90
47521;DHT22;32291;52.010;4.446;2023-07-30T05:28:20;17.50;99.90
47521;DHT22;32291;52.010;4.446;2023-07-30T05:29:22;17.50;99.90
47521;DHT22;32291;52.010;4.446;2023-07-30T05:30:29;17.60;99.90
47521;DHT22;32291;52.010;4.446;2023-07-30T05:31:32;17.60;99.90
47521;DHT22;32291;52.010;4.446;2023-07-30T05:32:39;17.60;99.90
47521;DHT22;32291;52.010;4.446;2023-07-30T05:33:41;17.70;99.90
47521;DHT22;32291;52.010;4.446;2023-07-30T05:34:48;17.70;99.90
47521;DHT22;32291;52.010;4.446;2023-07-30T05:35:50;17.70;99.90
47521;DHT22;32291;52.010;4.446;2023-07-30T05:36:57;17.70;99.90
47521;DHT22;32291;52.010;4.446;2023-07-30T05:38:04;17.70;99.90
47521;DHT22;32291;52.010;4.446;2023-07-30T05:39:06;17.70;99.90
47521;DHT22;32291;52.010;4.446;2023-07-30T05:40:08;17.70;99.90
47521;DHT22;32291;52.010;4.446;2023-07-30T05:41:11;17.80;99.90
47521;DHT22;32291;52.010;4.446;2023-07-30T05:42:13;17.80;99.90
47521;DHT22;32291;52.010;4.446;2023-07-30T05:43:15;17.80;99.90
47521;DHT22;32291;52.010;4.446;2023-07-30T05:44:22;17.80;99.90
47521;DHT22;32291;52.010;4.446;2023-07-30T05:45:24;17.80;99.90
47521;DHT22;32291;52.010;4.446;2023-07-30T05:46:26;17.80;99.90
47521;DHT22;32291;52.010;4.446;2023-07-30T05:47:33;17.80;99.90
47521;DHT22;32291;52.010;4.446;2023-07-30T05:48:40;17.90;99.90
47521;DHT22;32291;52.010;4.446;2023-07-30T05:49:42;17.90;99.90
47521;DHT22;32291;52.010;4.446;2023-07-30T05:50:44;17.90;99.90
47521;DHT22;32291;52.010;4.446;2023-07-30T05:51:46;17.90;99.90
47521;DHT22;32291;52.010;4.446;2023-07-30T05:52:53;17.90;99.90
47521;DHT22;32291;52.010;4.446;2023-07-30T05:53:55;17.90;99.90
47521;DHT22;32291;52.010;4.446;2023-07-30T05:54:57;17.90;99.90
47521;DHT22;32291;52.010;4.446;2023-07-30T05:56:04;17.90;99.90
47521;DHT22;32291;52.010;4.446;2023-07-30T05:57:11;17.90;99.90
47521;DHT22;32291;52.010;4.446;2023-07-30T05:58:13;17.90;99.90
47521;DHT22;32291;52.010;4.446;2023-07-30T05:59:20;18.00;99.90
47521;DHT22;32291;52.010;4.446;2023-07-30T06:00:22;18.00;99.90
47521;DHT22;32291;52.010;4.446;2023-07-30T06:01:30;18.00;99.90
47521;DHT22;32291;52.010;4.446;2023-07-30T06:02:32;17.90;99.90
47521;DHT22;32291;52.010;4.446;2023-07-30T06:03:34;18.00;99.90
47521;DHT22;32291;52.010;4.446;2023-07-30T06:04:37;17.90;99.90
47521;DHT22;32291;52.010;4.446;2023-07-30T06:05:42;18.00;99.90
47521;DHT22;32291;52.010;4.446;2023-07-30T06:06:44;18.00;99.90
47521;DHT22;32291;52.010;4.446;2023-07-30T06:07:51;18.00;99.90
47521;DHT22;32291;52.010;4.446;2023-07-30T06:08:58;17.90;99.90
47521;DHT22;32291;52.010;4.446;2023-07-30T06:10:05;18.00;99.90
47521;DHT22;32291;52.010;4.446;2023-07-30T06:11:08;17.90;99.90
47521;DHT22;32291;52.010;4.446;2023-07-30T06:12:10;18.00;99.90
47521;DHT22;32291;52.010;4.446;2023-07-30T06:13:12;18.00;99.90
47521;DHT22;32291;52.010;4.446;2023-07-30T06:14:19;18.10;99.90
47521;DHT22;32291;52.010;4.446;2023-07-30T06:15:26;18.00;99.90
47521;DHT22;32291;52.010;4.446;2023-07-30T06:16:33;18.00;99.90
47521;DHT22;32291;52.010;4.446;2023-07-30T06:17:40;18.00;99.90
47521;DHT22;32291;52.010;4.446;2023-07-30T06:18:47;18.00;99.90
47521;DHT22;32291;52.010;4.446;2023-07-30T06:19:49;18.00;99.90
47521;DHT22;32291;52.010;4.446;2023-07-30T06:20:52;18.00;99.90
47521;DHT22;32291;52.010;4.446;2023-07-30T06:21:59;18.00;99.90
47521;DHT22;32291;52.010;4.446;2023-07-30T06:23:06;18.00;99.90
47521;DHT22;32291;52.010;4.446;2023-07-30T06:24:08;17.90;99.90
47521;DHT22;32291;52.010;4.446;2023-07-30T06:25:10;18.00;99.90
47521;DHT22;32291;52.010;4.446;2023-07-30T06:26:12;18.00;99.90
47521;DHT22;32291;52.010;4.446;2023-07-30T06:27:19;18.00;99.90
47521;DHT22;32291;52.010;4.446;2023-07-30T06:28:26;17.90;99.90
47521;DHT22;32291;52.010;4.446;2023-07-30T06:29:29;18.00;99.90
47521;DHT22;32291;52.010;4.446;2023-07-30T06:30:35;18.00;99.90
47521;DHT22;32291;52.010;4.446;2023-07-30T06:31:43;17.90;99.90
47521;DHT22;32291;52.010;4.446;2023-07-30T06:32:45;18.00;99.90
47521;DHT22;32291;52.010;4.446;2023-07-30T06:33:47;17.90;99.90
47521;DHT22;32291;52.010;4.446;2023-07-30T06:34:49;18.00;99.90
47521;DHT22;32291;52.010;4.446;2023-07-30T06:35:51;18.00;99.90
47521;DHT22;32291;52.010;4.446;2023-07-30T06:36:58;18.00;99.90
47521;DHT22;32291;52.010;4.446;2023-07-30T06:38:00;18.00;99.90
47521;DHT22;32291;52.010;4.446;2023-07-30T06:39:03;18.00;99.90
47521;DHT22;32291;52.010;4.446;2023-07-30T06:40:10;18.00;99.90
47521;DHT22;32291;52.010;4.446;2023-07-30T06:41:12;18.10;99.90
47521;DHT22;32291;52.010;4.446;2023-07-30T06:42:15;18.10;99.90
47521;DHT22;32291;52.010;4.446;2023-07-30T06:43:17;18.10;99.90
47521;DHT22;32291;52.010;4.446;2023-07-30T06:44:24;18.10;99.90
47521;DHT22;32291;52.010;4.446;2023-07-30T06:45:31;18.10;99.90
47521;DHT22;32291;52.010;4.446;2023-07-30T06:46:33;18.20;99.90
47521;DHT22;32291;52.010;4.446;2023-07-30T06:47:40;18.20;99.90